Aviation Digital Data Service (ADDS)

Output produced by METARs form (2147 UTC 16 August 2017)
found at http://www.aviationweather.gov/adds/metars/
 
KLGA 162138Z 1622/1718 32007KT P6SM SCT070 BKN250 
     FM170200 34006KT P6SM SCT040 
     FM170700 36006KT P6SM FEW250 
     FM171300 03006KT P6SM FEW250 
     FM171700 08006KT P6SM FEW200